Echion — A8UY2 — position and weather

sailwx.info

Track history (hours):
 
Tides and Currents Weather Stations Pressure Air Temp Water Temp Dewpoint Dewpoint Depression Visibility Wind Speed Wind Dir Waves Ship Positions

Echion

Last reported at 2017-Nov-17 15:43 UTC. Time now 2017-Nov-18 06:47 UTC.
Position N 40°57' W 009°47'.

Length 88 m; draft 5.7 m.

Type: Cargo ship. MMSI: 636091961.

Date/timePositionNaut miles runAvg speedWind from/ knotsBaromVisibWave heightAir tempDewpointWater temp
2017-Nov-17 15:43N 40°57' W 009°47'2 8.6
2017-Nov-17 15:30N 40°55' W 009°47'5 9.4
2017-Nov-17 15:00N 40°51' W 009°47'33 9.6
2017-Nov-17 11:32N 40°17' W 009°47'0 9.9
2017-Nov-17 11:30N 40°17' W 009°47'48 9.3
2017-Nov-17 06:18N 39°29' W 009°49'3 9.3
2017-Nov-17 06:00N 39°26' W 009°49'5 9.7
2017-Nov-17 05:29N 39°21' W 009°49'5 9.8
2017-Nov-17 05:00N 39°16' W 009°49'8 9.7
2017-Nov-17 04:12N 39°08' W 009°49'2 9.5
2017-Nov-17 04:00N 39°06' W 009°49'5 9.3
2017-Nov-17 03:30N 39°02' W 009°49'5 9.2
2017-Nov-17 03:00N 38°57' W 009°50'5 9.4
2017-Nov-17 02:30N 38°52' W 009°50'5 9.5
2017-Nov-17 02:00N 38°48' W 009°50'5 9.5
2017-Nov-17 01:30N 38°43' W 009°50'5 9.5
2017-Nov-17 01:00N 38°38' W 009°49'5 9.3
2017-Nov-17 00:30N 38°34' W 009°47'5 9.3
2017-Nov-17 00:00N 38°29' W 009°46'5 9.2
2017-Nov-16 23:30N 38°25' W 009°43'5 9.3
2017-Nov-16 22:59N 38°20' W 009°42'4 8.9
2017-Nov-16 22:30N 38°16' W 009°41'4 8.8
2017-Nov-16 22:00N 38°12' W 009°40'5 8.9
2017-Nov-16 21:29N 38°07' W 009°38'4 9.0
2017-Nov-16 21:00N 38°03' W 009°37'4 8.9
2017-Nov-16 20:30N 37°59' W 009°36'5 9.2
2017-Nov-16 20:00N 37°54' W 009°35'5 9.2
2017-Nov-16 19:30N 37°50' W 009°33'5 9.1
2017-Nov-16 19:00N 37°45' W 009°33'5 9.0
2017-Nov-16 18:30N 37°41' W 009°32'5 8.9
2017-Nov-16 18:00N 37°36' W 009°31'4 8.9
2017-Nov-16 17:30N 37°32' W 009°29'4 8.5
2017-Nov-16 17:00N 37°28' W 009°28'38 9.5
2017-Nov-16 13:02N 36°51' W 009°16'0 9.6
2017-Nov-16 13:00N 36°51' W 009°16'196 8.7
2017-Nov-15 14:29N 35°59' W 005°22'4 8.8
2017-Nov-15 14:00N 35°55' W 005°19'1 2.7
2017-Nov-15 13:30N 35°54' W 005°19'0 0.0
2017-Nov-15 13:00N 35°54' W 005°19'0 0.0
2017-Nov-15 12:30N 35°54' W 005°19'0 0.0
2017-Nov-15 12:00N 35°54' W 005°19'0 0.0
2017-Nov-15 11:30N 35°54' W 005°19'0 0.0
2017-Nov-15 11:00N 35°54' W 005°19'0 0.0
2017-Nov-15 10:30N 35°54' W 005°19'0 0.4
2017-Nov-15 10:00N 35°54' W 005°19'1 2.9
2017-Nov-15 09:30N 35°55' W 005°18'  
Track history (hours):
 
Tides and Currents Weather Stations Pressure Air Temp Water Temp Dewpoint Dewpoint Depression Visibility Wind Speed Wind Dir Waves Ship Positions

Echion

Last reported at 2017-Nov-17 15:43 UTC. Time now 2017-Nov-18 06:47 UTC.
Position N 40°57' W 009°47'.

Length 88 m; draft 5.7 m.

Type: Cargo ship. MMSI: 636091961.

Date/timePositionNaut miles runAvg speedWind from/ knotsBaromVisibWave heightAir tempDewpointWater temp
2017-Nov-17 15:43N 40°57' W 009°47'2 8.6
2017-Nov-17 15:30N 40°55' W 009°47'5 9.4
2017-Nov-17 15:00N 40°51' W 009°47'33 9.6
2017-Nov-17 11:32N 40°17' W 009°47'0 9.9
2017-Nov-17 11:30N 40°17' W 009°47'48 9.3
2017-Nov-17 06:18N 39°29' W 009°49'3 9.3
2017-Nov-17 06:00N 39°26' W 009°49'5 9.7
2017-Nov-17 05:29N 39°21' W 009°49'5 9.8
2017-Nov-17 05:00N 39°16' W 009°49'8 9.7
2017-Nov-17 04:12N 39°08' W 009°49'2 9.5
2017-Nov-17 04:00N 39°06' W 009°49'5 9.3
2017-Nov-17 03:30N 39°02' W 009°49'5 9.2
2017-Nov-17 03:00N 38°57' W 009°50'5 9.4
2017-Nov-17 02:30N 38°52' W 009°50'5 9.5
2017-Nov-17 02:00N 38°48' W 009°50'5 9.5
2017-Nov-17 01:30N 38°43' W 009°50'5 9.5
2017-Nov-17 01:00N 38°38' W 009°49'5 9.3
2017-Nov-17 00:30N 38°34' W 009°47'5 9.3
2017-Nov-17 00:00N 38°29' W 009°46'5 9.2
2017-Nov-16 23:30N 38°25' W 009°43'5 9.3
2017-Nov-16 22:59N 38°20' W 009°42'4 8.9
2017-Nov-16 22:30N 38°16' W 009°41'4 8.8
2017-Nov-16 22:00N 38°12' W 009°40'5 8.9
2017-Nov-16 21:29N 38°07' W 009°38'4 9.0
2017-Nov-16 21:00N 38°03' W 009°37'4 8.9
2017-Nov-16 20:30N 37°59' W 009°36'5 9.2
2017-Nov-16 20:00N 37°54' W 009°35'5 9.2
2017-Nov-16 19:30N 37°50' W 009°33'5 9.1
2017-Nov-16 19:00N 37°45' W 009°33'5 9.0
2017-Nov-16 18:30N 37°41' W 009°32'5 8.9
2017-Nov-16 18:00N 37°36' W 009°31'4 8.9
2017-Nov-16 17:30N 37°32' W 009°29'4 8.5
2017-Nov-16 17:00N 37°28' W 009°28'38 9.5
2017-Nov-16 13:02N 36°51' W 009°16'0 9.6
2017-Nov-16 13:00N 36°51' W 009°16'196 8.7
2017-Nov-15 14:29N 35°59' W 005°22'4 8.8
2017-Nov-15 14:00N 35°55' W 005°19'1 2.7
2017-Nov-15 13:30N 35°54' W 005°19'0 0.0
2017-Nov-15 13:00N 35°54' W 005°19'0 0.0
2017-Nov-15 12:30N 35°54' W 005°19'0 0.0
2017-Nov-15 12:00N 35°54' W 005°19'0 0.0
2017-Nov-15 11:30N 35°54' W 005°19'0 0.0
2017-Nov-15 11:00N 35°54' W 005°19'0 0.0
2017-Nov-15 10:30N 35°54' W 005°19'0 0.4
2017-Nov-15 10:00N 35°54' W 005°19'1 2.9
2017-Nov-15 09:30N 35°55' W 005°18'  

Dump ship's entire track history